createdAt,value
2024-05-09T00:00:22.028Z,57.65
2024-05-09T00:01:14.468Z,57.44
2024-05-09T00:02:14.488Z,57.75
2024-05-09T00:03:14.482Z,57.67
2024-05-09T00:04:14.448Z,58.39
2024-05-09T00:05:14.652Z,58.08
2024-05-09T00:06:14.470Z,58.28
2024-05-09T00:07:14.393Z,58.59
2024-05-09T00:08:14.558Z,58.69
2024-05-09T00:09:14.488Z,58.92
2024-05-09T00:10:22.527Z,58.82
2024-05-09T00:11:14.494Z,59.33
2024-05-09T00:12:14.412Z,59.43
2024-05-09T00:13:14.386Z,59.64
2024-05-09T00:14:14.353Z,59.43
2024-05-09T00:15:14.287Z,59.43
2024-05-09T00:16:14.277Z,60.05
2024-05-09T00:17:14.303Z,59.64
2024-05-09T00:18:14.471Z,59.74
2024-05-09T00:19:14.689Z,59.74
2024-05-09T00:20:20.462Z,59.94
2024-05-09T00:21:14.260Z,59.64
2024-05-09T00:22:14.207Z,59.87
2024-05-09T00:23:14.388Z,59.97
2024-05-09T00:24:14.200Z,60.17
2024-05-09T00:25:14.230Z,60.07
2024-05-09T00:26:14.252Z,60.69
2024-05-09T00:27:14.213Z,60.07
2024-05-09T00:28:14.154Z,59.97
2024-05-09T00:29:14.197Z,60.28
2024-05-09T00:30:21.119Z,60.48
2024-05-09T00:31:14.133Z,60.07
2024-05-09T00:32:14.231Z,60.38
2024-05-09T00:33:14.350Z,60.17
2024-05-09T00:34:14.278Z,60.07
2024-05-09T00:35:14.114Z,60.17
2024-05-09T00:36:14.076Z,60.17
2024-05-09T00:37:14.068Z,60.89
2024-05-09T00:38:14.095Z,60.58
2024-05-09T00:39:14.139Z,60.58
2024-05-09T00:40:18.782Z,60.48
2024-05-09T00:41:16.358Z,60.58
2024-05-09T00:42:14.030Z,60.69
2024-05-09T00:43:15.028Z,60.69
2024-05-09T00:44:14.064Z,60.58
2024-05-09T00:45:14.175Z,60.69
2024-05-09T00:46:13.995Z,60.92
2024-05-09T00:47:14.141Z,61.22
2024-05-09T00:48:16.236Z,61.22
2024-05-09T00:49:14.062Z,61.53
2024-05-09T00:50:19.287Z,62.04
2024-05-09T00:51:14.037Z,61.83
2024-05-09T00:52:13.934Z,61.73
2024-05-09T00:53:13.951Z,61.63
2024-05-09T00:54:13.853Z,62.17
2024-05-09T00:55:13.836Z,62.24
2024-05-09T00:56:13.875Z,62.04
2024-05-09T00:57:13.896Z,62.17
2024-05-09T00:58:13.844Z,62.27
2024-05-09T00:59:13.875Z,62.07
2024-05-09T01:00:22.642Z,62.17
2024-05-09T01:01:13.819Z,62.48
2024-05-09T01:02:13.923Z,62.68
2024-05-09T01:03:14.576Z,62.58
2024-05-09T01:04:13.935Z,62.48
2024-05-09T01:05:13.790Z,62.48
2024-05-09T01:06:13.749Z,62.88
2024-05-09T01:07:13.717Z,62.92
2024-05-09T01:08:13.844Z,62.92
2024-05-09T01:09:13.801Z,63.02
2024-05-09T01:10:20.916Z,63.02
2024-05-09T01:11:13.800Z,63.43
2024-05-09T01:12:13.931Z,63.43
2024-05-09T01:13:13.666Z,63.32
2024-05-09T01:14:13.714Z,63.32
2024-05-09T01:15:13.632Z,63.63
2024-05-09T01:16:13.675Z,63.32
2024-05-09T01:17:13.757Z,63.53
2024-05-09T01:18:14.123Z,63.53
2024-05-09T01:19:13.796Z,63.43
2024-05-09T01:20:20.039Z,63.63
2024-05-09T01:21:13.885Z,63.96
2024-05-09T01:22:13.603Z,63.86
2024-05-09T01:23:15.390Z,63.76
2024-05-09T01:24:13.515Z,64.27
2024-05-09T01:25:13.528Z,63.76
2024-05-09T01:26:13.659Z,63.86
2024-05-09T01:27:13.535Z,63.86
2024-05-09T01:28:13.505Z,63.66
2024-05-09T01:29:13.561Z,63.66
2024-05-09T01:30:17.430Z,63.76
2024-05-09T01:31:13.548Z,63.76
2024-05-09T01:32:13.606Z,63.96
2024-05-09T01:33:13.928Z,64.27
2024-05-09T01:34:13.475Z,63.86
2024-05-09T01:35:13.471Z,63.86
2024-05-09T01:36:13.485Z,63.86
2024-05-09T01:37:13.455Z,63.76
2024-05-09T01:38:14.126Z,63.96
2024-05-09T01:39:13.376Z,64.37
2024-05-09T01:40:18.541Z,64.37
2024-05-09T01:41:13.423Z,64.27
2024-05-09T01:42:13.338Z,64.37
2024-05-09T01:43:13.376Z,64.51
2024-05-09T01:44:13.620Z,64.81
2024-05-09T01:45:13.387Z,65.12
2024-05-09T01:46:13.406Z,65.12
2024-05-09T01:47:13.455Z,64.92
2024-05-09T01:48:13.428Z,65.12
2024-05-09T01:49:13.350Z,64.61
2024-05-09T01:50:16.408Z,64.71
2024-05-09T01:51:13.396Z,65.02
2024-05-09T01:52:13.382Z,64.92
2024-05-09T01:53:13.967Z,64.71
2024-05-09T01:54:13.286Z,64.71
2024-05-09T01:55:13.806Z,64.92
2024-05-09T01:56:13.290Z,65.02
2024-05-09T01:57:13.279Z,65.02
2024-05-09T01:58:13.207Z,65.22
2024-05-09T01:59:13.260Z,65.02
2024-05-09T02:00:19.003Z,65.12
2024-05-09T02:01:13.161Z,65.02
2024-05-09T02:02:13.262Z,65.36
2024-05-09T02:03:16.089Z,65.46
2024-05-09T02:04:13.458Z,65.46
2024-05-09T02:05:13.269Z,65.77
2024-05-09T02:06:13.117Z,65.66
2024-05-09T02:07:13.161Z,65.77
2024-05-09T02:08:13.093Z,65.46
2024-05-09T02:09:13.109Z,65.77
2024-05-09T02:10:20.181Z,66.28
2024-05-09T02:11:13.127Z,66.17
2024-05-09T02:12:13.171Z,66.07
2024-05-09T02:13:13.061Z,66.28
2024-05-09T02:14:13.040Z,66.28
2024-05-09T02:15:12.969Z,66.07
2024-05-09T02:16:12.950Z,66.28
2024-05-09T02:17:13.005Z,66.17
2024-05-09T02:18:13.648Z,66.31
2024-05-09T02:19:13.234Z,66.31
2024-05-09T02:20:18.943Z,66.20
2024-05-09T02:21:12.931Z,66.72
2024-05-09T02:22:12.901Z,66.61
2024-05-09T02:23:13.080Z,66.51
2024-05-09T02:24:12.986Z,67.02
2024-05-09T02:25:12.987Z,66.82
2024-05-09T02:26:12.949Z,66.92
2024-05-09T02:27:12.959Z,67.23
2024-05-09T02:28:12.827Z,67.23
2024-05-09T02:29:12.876Z,67.33
2024-05-09T02:30:18.991Z,67.26
2024-05-09T02:31:12.853Z,67.57
2024-05-09T02:32:12.962Z,67.26
2024-05-09T02:33:14.294Z,67.46
2024-05-09T02:34:12.854Z,67.46
2024-05-09T02:35:12.791Z,67.26
2024-05-09T02:36:12.879Z,67.46
2024-05-09T02:37:12.916Z,67.57
2024-05-09T02:38:13.362Z,67.46
2024-05-09T02:39:12.711Z,67.57
2024-05-09T02:40:14.915Z,67.67
2024-05-09T02:41:12.748Z,67.57
2024-05-09T02:42:12.910Z,67.97
2024-05-09T02:43:13.249Z,67.87
2024-05-09T02:44:12.779Z,68.08
2024-05-09T02:45:12.633Z,67.97
2024-05-09T02:46:12.645Z,68.18
2024-05-09T02:47:12.820Z,68.21
2024-05-09T02:48:13.848Z,68.21
2024-05-09T02:49:12.760Z,68.32
2024-05-09T02:51:12.681Z,68.41
2024-05-09T02:52:12.653Z,68.41
2024-05-09T02:53:12.722Z,68.52
2024-05-09T02:54:12.579Z,68.73
2024-05-09T02:55:12.507Z,68.93
2024-05-09T02:56:12.937Z,68.73
2024-05-09T02:57:12.512Z,68.93
2024-05-09T02:58:12.513Z,68.83
2024-05-09T02:59:12.549Z,68.83
2024-05-09T03:00:18.842Z,69.13
2024-05-09T03:01:12.463Z,69.34
2024-05-09T03:02:12.613Z,69.03
2024-05-09T03:03:14.602Z,68.93
2024-05-09T03:04:12.456Z,69.03
2024-05-09T03:05:12.436Z,68.93
2024-05-09T03:06:12.370Z,69.03
2024-05-09T03:07:12.357Z,69.24
2024-05-09T03:08:12.762Z,69.37
2024-05-09T03:09:12.413Z,69.17
2024-05-09T03:10:18.574Z,69.57
2024-05-09T03:11:12.419Z,69.78
2024-05-09T03:12:12.562Z,69.68
2024-05-09T03:13:13.562Z,69.57
2024-05-09T03:14:12.370Z,69.68
2024-05-09T03:15:12.336Z,69.37
2024-05-09T03:16:12.285Z,69.68
2024-05-09T03:17:12.307Z,69.37
2024-05-09T03:18:12.855Z,69.57
2024-05-09T03:19:12.589Z,69.68
2024-05-09T03:20:20.338Z,69.71
2024-05-09T03:21:12.299Z,69.71
2024-05-09T03:22:12.279Z,69.92
2024-05-09T03:23:12.500Z,69.92
2024-05-09T03:24:12.315Z,69.92
2024-05-09T03:25:12.179Z,69.92
2024-05-09T03:26:12.340Z,70.02
2024-05-09T03:27:12.263Z,70.32
2024-05-09T03:28:12.157Z,70.02
2024-05-09T03:29:12.218Z,70.22
2024-05-09T03:31:12.109Z,70.43
2024-05-09T03:32:12.320Z,70.32
2024-05-09T03:33:13.803Z,70.22
2024-05-09T03:34:12.267Z,70.32
2024-05-09T03:35:12.254Z,70.43
2024-05-09T03:36:12.138Z,70.53
2024-05-09T03:37:12.142Z,70.46
2024-05-09T03:38:12.431Z,70.87
2024-05-09T03:39:12.136Z,70.67
2024-05-09T03:40:20.249Z,71.08
2024-05-09T03:41:12.175Z,70.97
2024-05-09T03:42:12.146Z,70.97
2024-05-09T03:43:12.139Z,70.77
2024-05-09T03:44:12.245Z,70.87
2024-05-09T03:45:12.129Z,70.87
2024-05-09T03:46:12.000Z,71.08
2024-05-09T03:47:12.097Z,71.48
2024-05-09T03:48:12.238Z,71.08
2024-05-09T03:49:12.113Z,71.08
2024-05-09T03:50:18.365Z,70.87
2024-05-09T03:51:12.131Z,70.87
2024-05-09T03:52:11.965Z,71.18
2024-05-09T03:53:11.964Z,70.97
2024-05-09T03:54:12.358Z,70.97
2024-05-09T03:55:11.889Z,71.08
2024-05-09T03:56:12.531Z,71.48
2024-05-09T03:57:12.063Z,71.39
2024-05-09T03:58:11.904Z,71.48
2024-05-09T03:59:11.861Z,71.39
2024-05-09T04:00:17.917Z,71.28
2024-05-09T04:01:12.060Z,71.39
2024-05-09T04:02:11.924Z,71.39
2024-05-09T04:03:13.215Z,71.39
2024-05-09T04:04:11.803Z,71.18
2024-05-09T04:05:11.897Z,71.28
2024-05-09T04:06:11.727Z,71.28
2024-05-09T04:07:11.755Z,71.48
2024-05-09T04:08:11.924Z,71.18
2024-05-09T04:09:11.743Z,71.39
2024-05-09T04:10:20.956Z,71.18
2024-05-09T04:11:11.808Z,71.59
2024-05-09T04:12:11.754Z,71.59
2024-05-09T04:13:11.780Z,71.59
2024-05-09T04:14:11.801Z,71.59
2024-05-09T04:15:13.634Z,71.59
2024-05-09T04:16:11.690Z,71.59
2024-05-09T04:17:11.725Z,71.80
2024-05-09T04:18:11.686Z,72.00
2024-05-09T04:19:11.874Z,72.10
2024-05-09T04:20:21.316Z,71.80
2024-05-09T04:21:12.125Z,71.39
2024-05-09T04:22:11.688Z,71.48
2024-05-09T04:23:12.026Z,71.48
2024-05-09T04:24:11.534Z,71.59
2024-05-09T04:25:11.557Z,71.80
2024-05-09T04:26:11.779Z,71.80
2024-05-09T04:27:11.688Z,71.39
2024-05-09T04:28:11.664Z,71.28
2024-05-09T04:29:11.567Z,71.18
2024-05-09T04:30:18.945Z,71.35
2024-05-09T04:31:11.510Z,71.35
2024-05-09T04:32:11.654Z,70.94
2024-05-09T04:33:13.462Z,71.04
2024-05-09T04:34:11.766Z,71.15
2024-05-09T04:35:11.560Z,70.94
2024-05-09T04:36:11.417Z,70.94
2024-05-09T04:37:11.560Z,70.73
2024-05-09T04:38:11.588Z,70.84
2024-05-09T04:39:12.357Z,70.84
2024-05-09T04:40:20.485Z,70.43
2024-05-09T04:41:11.644Z,70.53
2024-05-09T04:42:11.363Z,70.53
2024-05-09T04:43:11.368Z,70.40
2024-05-09T04:44:11.328Z,70.40
2024-05-09T04:45:11.387Z,70.09
2024-05-09T04:46:11.376Z,70.29
2024-05-09T04:47:11.425Z,70.19
2024-05-09T04:48:11.692Z,70.09
2024-05-09T04:49:11.365Z,69.78
2024-05-09T04:50:11.795Z,69.75
2024-05-09T04:51:11.332Z,69.65
2024-05-09T04:52:11.321Z,69.44
2024-05-09T04:53:11.770Z,69.54
2024-05-09T04:54:22.116Z,69.54
2024-05-09T04:55:11.331Z,69.34
2024-05-09T04:56:11.332Z,69.03
2024-05-09T04:57:11.215Z,68.93
2024-05-09T04:58:11.295Z,69.34
2024-05-09T04:59:11.264Z,69.03
2024-05-09T05:00:14.908Z,68.93
2024-05-09T05:01:11.198Z,69.03
2024-05-09T05:02:11.256Z,69.44
2024-05-09T05:03:13.741Z,68.90
2024-05-09T05:04:11.274Z,68.93
2024-05-09T05:05:12.071Z,68.79
2024-05-09T05:06:11.126Z,68.59
2024-05-09T05:07:11.107Z,68.69
2024-05-09T05:08:11.116Z,68.38
2024-05-09T05:09:11.040Z,68.59
2024-05-09T05:10:15.053Z,68.90
2024-05-09T05:11:11.180Z,68.49
2024-05-09T05:12:11.174Z,68.59
2024-05-09T05:13:11.037Z,68.76
2024-05-09T05:14:11.033Z,68.46
2024-05-09T05:15:11.010Z,67.84
2024-05-09T05:16:11.063Z,67.84
2024-05-09T05:17:11.078Z,67.74
2024-05-09T05:18:11.218Z,67.81
2024-05-09T05:19:13.480Z,67.71
2024-05-09T05:20:15.213Z,67.30
2024-05-09T05:21:11.083Z,67.40
2024-05-09T05:22:10.974Z,67.19
2024-05-09T05:23:10.994Z,66.99
2024-05-09T05:24:10.890Z,66.75
2024-05-09T05:25:10.955Z,66.75
2024-05-09T05:26:10.941Z,66.66
2024-05-09T05:27:10.851Z,66.55
2024-05-09T05:28:10.957Z,66.96
2024-05-09T05:29:10.976Z,66.75
2024-05-09T05:30:17.585Z,66.25
2024-05-09T05:31:10.835Z,66.66
2024-05-09T05:32:10.917Z,66.75
2024-05-09T05:33:10.880Z,66.25
2024-05-09T05:34:10.899Z,66.55
2024-05-09T05:35:10.853Z,66.45
2024-05-09T05:36:10.897Z,65.94
2024-05-09T05:37:10.838Z,66.45
2024-05-09T05:38:11.099Z,66.21
2024-05-09T05:39:10.847Z,65.91
2024-05-09T05:40:14.631Z,65.80
2024-05-09T05:41:10.734Z,65.80
2024-05-09T05:42:10.933Z,65.40
2024-05-09T05:43:11.155Z,65.16
2024-05-09T05:44:10.814Z,65.16
2024-05-09T05:45:10.672Z,65.37
2024-05-09T05:46:10.674Z,64.96
2024-05-09T05:47:10.716Z,64.96
2024-05-09T05:48:10.779Z,64.52
2024-05-09T05:49:10.871Z,64.52
2024-05-09T05:50:20.711Z,64.72
2024-05-09T05:51:10.726Z,65.23
2024-05-09T05:52:10.663Z,64.69
2024-05-09T05:53:10.932Z,63.67
2024-05-09T05:54:10.559Z,63.67
2024-05-09T05:55:10.622Z,63.26
2024-05-09T05:56:10.709Z,63.67
2024-05-09T05:57:10.531Z,63.47
2024-05-09T05:58:10.569Z,63.95
2024-05-09T05:59:11.967Z,63.23
2024-05-09T06:00:17.956Z,62.52
2024-05-09T06:01:10.602Z,62.62
2024-05-09T06:02:10.609Z,62.52
2024-05-09T06:03:11.223Z,63.23
2024-05-09T06:04:10.617Z,62.52
2024-05-09T06:05:10.805Z,62.42
2024-05-09T06:06:10.467Z,62.73
2024-05-09T06:07:10.474Z,61.98
2024-05-09T06:08:10.654Z,62.29
2024-05-09T06:09:10.420Z,62.39
2024-05-09T06:10:17.316Z,62.18
2024-05-09T06:11:10.470Z,61.68
2024-05-09T06:12:10.524Z,62.29
2024-05-09T06:13:10.568Z,61.57
2024-05-09T06:14:10.379Z,61.57
2024-05-09T06:15:10.372Z,61.95
2024-05-09T06:16:10.353Z,61.65
2024-05-09T06:17:10.586Z,61.34
2024-05-09T06:18:11.723Z,61.14
2024-05-09T06:19:10.530Z,61.04
2024-05-09T06:20:20.112Z,60.80
2024-05-09T06:21:10.343Z,61.11
2024-05-09T06:22:10.256Z,60.60
2024-05-09T06:23:10.658Z,60.19
2024-05-09T06:24:10.245Z,60.50
2024-05-09T06:25:10.346Z,60.39
2024-05-09T06:26:10.406Z,60.37
2024-05-09T06:27:10.209Z,59.66
2024-05-09T06:28:10.188Z,59.38
2024-05-09T06:29:10.208Z,59.78
2024-05-09T06:30:21.039Z,60.09
2024-05-09T06:31:10.261Z,60.09
2024-05-09T06:32:10.337Z,60.09
2024-05-09T06:33:11.984Z,59.58
2024-05-09T06:34:10.302Z,59.58
2024-05-09T06:35:10.179Z,59.45
2024-05-09T06:36:10.100Z,59.14
2024-05-09T06:37:10.126Z,59.25
2024-05-09T06:38:10.383Z,58.13
2024-05-09T06:39:10.160Z,57.92
2024-05-09T06:40:10.189Z,57.52
2024-05-09T06:41:10.212Z,57.72
2024-05-09T06:42:10.060Z,57.72
2024-05-09T06:43:10.040Z,58.13
2024-05-09T06:44:10.167Z,58.20
2024-05-09T06:45:10.111Z,58.20
2024-05-09T06:46:09.985Z,57.69
2024-05-09T06:47:10.186Z,58.38
2024-05-09T06:48:11.156Z,57.36
2024-05-09T06:49:10.115Z,57.06
2024-05-09T06:50:19.609Z,56.95
2024-05-09T06:51:10.286Z,57.16
2024-05-09T06:52:10.023Z,56.65
2024-05-09T06:53:10.034Z,56.34
2024-05-09T06:54:09.903Z,56.55
2024-05-09T06:55:09.917Z,55.83
2024-05-09T06:56:09.924Z,55.73
2024-05-09T06:57:09.938Z,55.81
2024-05-09T06:58:11.052Z,55.71
2024-05-09T06:59:09.892Z,55.81
2024-05-09T07:00:15.520Z,55.91
2024-05-09T07:01:09.876Z,56.21
2024-05-09T07:02:09.880Z,55.81
2024-05-09T07:03:10.804Z,55.71
2024-05-09T07:04:10.040Z,55.91
2024-05-09T07:05:09.962Z,55.88
2024-05-09T07:06:09.934Z,55.27
2024-05-09T07:07:09.830Z,55.27
2024-05-09T07:08:10.312Z,55.58
2024-05-09T07:09:09.828Z,54.97
2024-05-09T07:10:14.986Z,55.07
2024-05-09T07:11:09.905Z,55.18
2024-05-09T07:12:09.854Z,55.88
2024-05-09T07:13:09.735Z,55.68
2024-05-09T07:14:09.731Z,55.55
2024-05-09T07:15:09.743Z,56.26
2024-05-09T07:16:09.701Z,55.96
2024-05-09T07:17:09.740Z,55.76
2024-05-09T07:18:09.977Z,55.83
2024-05-09T07:19:09.990Z,55.83
2024-05-09T07:20:16.161Z,55.12
2024-05-09T07:21:09.754Z,54.72
2024-05-09T07:22:09.716Z,54.59
2024-05-09T07:23:09.759Z,54.49
2024-05-09T07:24:09.633Z,54.99
2024-05-09T07:25:09.727Z,55.10
2024-05-09T07:26:09.729Z,54.90
2024-05-09T07:27:09.606Z,54.69
2024-05-09T07:28:09.660Z,54.39
2024-05-09T07:29:10.413Z,53.88
2024-05-09T07:30:13.513Z,54.18
2024-05-09T07:31:09.536Z,53.78
2024-05-09T07:32:09.504Z,53.98
2024-05-09T07:33:09.764Z,54.18
2024-05-09T07:34:09.666Z,52.84
2024-05-09T07:35:09.502Z,52.84
2024-05-09T07:36:09.512Z,52.23
2024-05-09T07:37:09.437Z,52.44
2024-05-09T07:38:09.494Z,52.64
2024-05-09T07:39:09.519Z,52.64
2024-05-09T07:40:12.048Z,52.64
2024-05-09T07:41:09.439Z,52.20
2024-05-09T07:42:09.402Z,52.20
2024-05-09T07:43:09.373Z,51.90
2024-05-09T07:44:09.921Z,51.47
2024-05-09T07:45:21.410Z,51.47
2024-05-09T07:47:13.877Z,51.07
2024-05-09T07:50:34.096Z,50.66
2024-05-09T07:53:32.429Z,50.66
2024-05-09T07:53:49.465Z,50.76
2024-05-09T07:54:00.491Z,50.23
2024-05-09T07:54:56.467Z,50.74
2024-05-09T07:55:56.815Z,50.94
2024-05-09T07:56:56.364Z,50.84
2024-05-09T07:57:57.070Z,51.04
2024-05-09T07:58:56.420Z,50.61
2024-05-09T07:59:56.007Z,49.90
2024-05-09T08:00:56.155Z,49.60
2024-05-09T08:01:56.144Z,49.70
2024-05-09T08:02:56.056Z,49.60
2024-05-09T08:03:56.372Z,49.52
2024-05-09T08:04:56.224Z,49.83
2024-05-09T08:05:55.975Z,49.62
2024-05-09T08:06:55.962Z,49.73
2024-05-09T08:07:55.919Z,49.62
2024-05-09T08:08:57.847Z,49.22
2024-05-09T08:09:56.045Z,49.32
2024-05-09T08:10:56.078Z,49.62
2024-05-09T08:11:55.991Z,49.73
2024-05-09T08:12:55.940Z,49.95
2024-05-09T08:13:55.862Z,50.34
2024-05-09T08:14:55.845Z,50.23
2024-05-09T08:15:56.027Z,49.73
2024-05-09T08:16:55.957Z,49.62
2024-05-09T08:17:56.396Z,49.52
2024-05-09T08:18:55.990Z,49.19
2024-05-09T08:19:55.799Z,49.30
2024-05-09T08:20:55.803Z,49.17
2024-05-09T08:21:55.915Z,49.15
2024-05-09T08:22:55.795Z,47.94
2024-05-09T08:23:55.882Z,47.75
2024-05-09T08:24:55.946Z,47.55
2024-05-09T08:25:55.831Z,47.45
2024-05-09T08:26:55.750Z,47.86
2024-05-09T08:27:55.907Z,47.25
2024-05-09T08:28:55.741Z,47.43
2024-05-09T08:29:55.794Z,47.33
2024-05-09T08:30:55.914Z,47.13
2024-05-09T08:31:56.006Z,47.23
2024-05-09T08:32:55.824Z,46.92
2024-05-09T08:33:55.926Z,46.62
2024-05-09T08:34:55.862Z,46.72
2024-05-09T08:35:55.656Z,46.70
2024-05-09T08:36:57.562Z,47.11
2024-05-09T08:37:55.875Z,46.60
2024-05-09T08:38:55.657Z,46.50
2024-05-09T08:39:55.762Z,45.89
2024-05-09T08:40:55.692Z,46.09
2024-05-09T08:41:55.610Z,45.59
2024-05-09T08:42:55.634Z,45.49
2024-05-09T08:43:55.629Z,45.39
2024-05-09T08:44:55.645Z,45.31
2024-05-09T08:45:55.650Z,45.39
2024-05-09T08:46:55.626Z,45.59
2024-05-09T08:47:55.780Z,45.08
2024-05-09T08:48:55.692Z,44.76
2024-05-09T08:49:55.593Z,44.46
2024-05-09T08:50:55.654Z,44.35
2024-05-09T08:51:55.647Z,43.37
2024-05-09T08:52:55.523Z,42.46
2024-05-09T08:53:55.476Z,42.86
2024-05-09T08:54:55.515Z,43.46
2024-05-09T08:55:55.533Z,42.74
2024-05-09T08:56:55.473Z,42.54
2024-05-09T08:57:55.500Z,42.33
2024-05-09T08:58:55.532Z,42.11
2024-05-09T08:59:55.442Z,42.52
2024-05-09T09:00:55.566Z,42.09
2024-05-09T09:01:55.592Z,41.69
2024-05-09T09:02:55.497Z,42.09
2024-05-09T09:03:55.596Z,42.70
2024-05-09T09:04:55.470Z,41.69
2024-05-09T09:05:55.424Z,41.99
2024-05-09T09:06:58.200Z,41.79
2024-05-09T09:07:55.352Z,41.08
2024-05-09T09:08:55.371Z,40.78
2024-05-09T09:09:55.447Z,40.88
2024-05-09T09:10:55.428Z,41.10
2024-05-09T09:11:55.407Z,41.00
2024-05-09T09:12:55.402Z,41.20
2024-05-09T09:13:55.340Z,41.28
2024-05-09T09:14:55.287Z,41.69
2024-05-09T09:15:55.324Z,41.06
2024-05-09T09:16:55.307Z,40.96
2024-05-09T09:17:55.427Z,40.56
2024-05-09T09:18:55.573Z,40.76
2024-05-09T09:19:55.458Z,40.56
2024-05-09T09:20:55.378Z,40.56
2024-05-09T09:21:55.339Z,40.25
2024-05-09T09:22:55.252Z,41.08
2024-05-09T09:23:55.313Z,41.28
2024-05-09T09:24:55.372Z,41.27
2024-05-09T09:25:55.320Z,40.96
2024-05-09T09:26:55.222Z,40.23
2024-05-09T09:27:55.346Z,40.14
2024-05-09T09:28:55.239Z,40.03
2024-05-09T09:29:55.299Z,39.03
2024-05-09T09:30:55.252Z,39.35
2024-05-09T09:31:55.174Z,39.33
2024-05-09T09:32:55.280Z,39.23
2024-05-09T09:33:55.313Z,38.93
2024-05-09T09:34:55.320Z,38.82
2024-05-09T09:35:55.446Z,38.42
2024-05-09T09:36:55.265Z,38.62
2024-05-09T09:37:55.177Z,38.52
2024-05-09T09:38:55.195Z,38.52
2024-05-09T09:39:55.183Z,38.42
2024-05-09T09:40:55.210Z,38.40
2024-05-09T09:41:55.217Z,38.30
2024-05-09T09:42:55.137Z,38.18
2024-05-09T09:43:55.100Z,37.68
2024-05-09T09:45:03.794Z,37.78
2024-05-09T09:45:56.002Z,37.87
2024-05-09T09:46:55.209Z,37.96
2024-05-09T09:47:55.251Z,37.78
2024-05-09T09:48:55.263Z,37.98
2024-05-09T09:49:55.121Z,37.96
2024-05-09T09:50:55.054Z,38.17
2024-05-09T09:51:55.272Z,38.37
2024-05-09T09:52:55.045Z,38.75
2024-05-09T09:53:55.091Z,37.34
2024-05-09T09:54:55.173Z,37.54
2024-05-09T09:55:55.453Z,37.23
2024-05-09T09:56:55.709Z,37.01
2024-05-09T09:57:55.092Z,36.80
2024-05-09T09:58:54.986Z,36.50
2024-05-09T09:59:55.050Z,36.20
2024-05-09T10:00:55.968Z,36.52
2024-05-09T10:01:56.023Z,36.74
2024-05-09T10:02:55.054Z,36.64
2024-05-09T10:03:55.240Z,36.04
2024-05-09T10:04:55.160Z,36.04
2024-05-09T10:05:55.282Z,35.31
2024-05-09T10:06:54.990Z,35.21
2024-05-09T10:07:55.019Z,35.71
2024-05-09T10:08:55.027Z,35.51
2024-05-09T10:09:54.932Z,35.63
2024-05-09T10:10:55.126Z,35.63
2024-05-09T10:11:59.978Z,35.53
2024-05-09T10:12:54.973Z,34.92
2024-05-09T10:13:55.011Z,34.42
2024-05-09T10:14:55.809Z,34.00
2024-05-09T10:15:54.954Z,34.00
2024-05-09T10:16:54.854Z,34.09
2024-05-09T10:17:55.073Z,33.89
2024-05-09T10:18:55.247Z,33.69
2024-05-09T10:19:55.885Z,33.79
2024-05-09T10:20:54.841Z,33.47
2024-05-09T10:21:54.936Z,32.67
2024-05-09T10:22:54.810Z,32.17
2024-05-09T10:23:54.880Z,31.95
2024-05-09T10:24:54.975Z,31.95
2024-05-09T10:25:54.796Z,31.65
2024-05-09T10:26:54.773Z,31.04
2024-05-09T10:27:54.905Z,29.63
2024-05-09T10:28:54.744Z,30.14
2024-05-09T10:29:54.943Z,29.94
2024-05-09T10:30:54.830Z,30.24
2024-05-09T10:31:54.798Z,30.85
2024-05-09T10:32:54.799Z,31.96
2024-05-09T10:33:55.024Z,32.06
2024-05-09T10:34:54.743Z,32.46
2024-05-09T10:35:54.794Z,32.45
2024-05-09T10:36:55.351Z,32.45
2024-05-09T10:37:54.716Z,32.24
2024-05-09T10:38:54.721Z,31.95
2024-05-09T10:39:54.812Z,31.34
2024-05-09T10:40:54.645Z,31.23
2024-05-09T10:41:54.665Z,31.83
2024-05-09T10:42:54.764Z,32.14
2024-05-09T10:43:54.682Z,31.43
2024-05-09T10:44:54.903Z,31.71
2024-05-09T10:45:54.628Z,31.51
2024-05-09T10:46:54.946Z,31.21
2024-05-09T10:47:54.704Z,30.81
2024-05-09T10:48:54.745Z,31.31
2024-05-09T10:49:54.715Z,31.90
2024-05-09T10:50:54.620Z,31.70
2024-05-09T10:51:54.640Z,32.00
2024-05-09T10:52:54.520Z,31.90
2024-05-09T10:53:54.538Z,31.38
2024-05-09T10:54:54.603Z,31.29
2024-05-09T10:55:54.461Z,31.37
2024-05-09T10:56:54.563Z,30.28
2024-05-09T10:57:54.596Z,30.28
2024-05-09T10:58:54.505Z,30.50
2024-05-09T10:59:54.481Z,31.10
2024-05-09T11:00:54.560Z,31.30
2024-05-09T11:01:54.462Z,31.50
2024-05-09T11:02:54.496Z,31.20
2024-05-09T11:03:54.547Z,30.50
2024-05-09T11:04:54.496Z,29.39
2024-05-09T11:05:54.468Z,29.48
2024-05-09T11:06:55.016Z,29.27
2024-05-09T11:07:54.317Z,27.96
2024-05-09T11:08:54.361Z,27.26
2024-05-09T11:09:54.411Z,27.95
2024-05-09T11:10:54.569Z,29.36
2024-05-09T11:11:54.543Z,30.57
2024-05-09T11:12:54.420Z,30.26
2024-05-09T11:13:54.254Z,29.05
2024-05-09T11:14:54.276Z,28.84
2024-05-09T11:15:54.292Z,29.74
2024-05-09T11:16:54.302Z,28.82
2024-05-09T11:17:54.290Z,28.02
2024-05-09T11:18:54.481Z,28.62
2024-05-09T11:19:54.162Z,29.61
2024-05-09T11:20:54.154Z,28.19
2024-05-09T11:21:54.222Z,26.79
2024-05-09T11:22:54.215Z,26.89
2024-05-09T11:23:54.125Z,26.08
2024-05-09T11:24:54.327Z,26.18
2024-05-09T11:25:54.153Z,25.87
2024-05-09T11:26:54.107Z,24.76
2024-05-09T11:27:54.067Z,25.27
2024-05-09T11:28:54.096Z,24.97
2024-05-09T11:29:54.021Z,25.07
2024-05-09T11:30:54.103Z,25.37
2024-05-09T11:31:54.159Z,25.07
2024-05-09T11:32:54.075Z,25.47
2024-05-09T11:33:54.108Z,25.89
2024-05-09T11:34:53.962Z,25.77
2024-05-09T11:35:53.933Z,25.59
2024-05-09T11:36:54.063Z,25.21
2024-05-09T11:37:54.028Z,26.21
2024-05-09T11:38:53.917Z,26.32
2024-05-09T11:39:53.916Z,26.42
2024-05-09T11:40:54.273Z,27.33
2024-05-09T11:41:53.876Z,27.14
2024-05-09T11:42:53.912Z,26.82
2024-05-09T11:43:53.900Z,27.62
2024-05-09T11:44:53.829Z,28.01
2024-05-09T11:45:53.874Z,27.80
2024-05-09T11:46:53.815Z,27.88
2024-05-09T11:47:54.044Z,27.37
2024-05-09T11:48:54.025Z,27.57
2024-05-09T11:49:53.977Z,28.07
2024-05-09T11:50:53.858Z,28.57
2024-05-09T11:51:53.886Z,27.56
2024-05-09T11:52:54.484Z,27.95
2024-05-09T11:53:53.718Z,27.84
2024-05-09T11:54:53.899Z,28.03
2024-05-09T11:55:53.830Z,27.02
2024-05-09T11:56:53.692Z,26.82
2024-05-09T11:57:53.789Z,26.31
2024-05-09T11:58:53.719Z,26.40
2024-05-09T11:59:53.702Z,25.01
2024-05-09T12:00:53.787Z,24.60
2024-05-09T12:01:53.931Z,23.69
2024-05-09T12:02:53.657Z,24.77
2024-05-09T12:03:53.731Z,23.78
2024-05-09T12:04:53.837Z,25.09
2024-05-09T12:05:53.674Z,25.50
2024-05-09T12:06:53.718Z,25.90
2024-05-09T12:07:53.622Z,26.29
2024-05-09T12:08:53.715Z,25.91
2024-05-09T12:09:53.628Z,26.62
2024-05-09T12:10:53.965Z,26.52
2024-05-09T12:11:53.580Z,26.42
2024-05-09T12:12:53.618Z,26.70
2024-05-09T12:13:53.594Z,25.71
2024-05-09T12:14:53.501Z,24.40
2024-05-09T12:15:53.577Z,24.10
2024-05-09T12:16:53.515Z,24.30
2024-05-09T12:17:53.728Z,24.10
2024-05-09T12:18:53.621Z,24.21
2024-05-09T12:19:53.435Z,23.61
2024-05-09T12:20:53.438Z,24.21
2024-05-09T12:21:53.517Z,24.02
2024-05-09T12:22:53.517Z,24.02
2024-05-09T12:23:53.382Z,25.21
2024-05-09T12:24:53.452Z,24.51
2024-05-09T12:25:53.434Z,24.62
2024-05-09T12:26:53.620Z,25.02
2024-05-09T12:27:53.427Z,24.84
2024-05-09T12:28:53.349Z,25.73
2024-05-09T12:29:53.323Z,25.85
2024-05-09T12:30:53.351Z,25.85
2024-05-09T12:31:53.431Z,25.15
2024-05-09T12:32:53.576Z,24.84
2024-05-09T12:33:53.421Z,24.54
2024-05-09T12:34:53.369Z,24.24
2024-05-09T12:35:53.351Z,24.15
2024-05-09T12:36:53.546Z,24.55
2024-05-09T12:37:53.362Z,24.46
2024-05-09T12:38:53.428Z,24.76
2024-05-09T12:39:53.308Z,25.15
2024-05-09T12:40:53.402Z,24.44
2024-05-09T12:41:53.258Z,24.82
2024-05-09T12:42:53.315Z,24.81
2024-05-09T12:43:53.192Z,25.20
2024-05-09T12:44:53.224Z,24.89
2024-05-09T12:45:53.231Z,25.29
2024-05-09T12:46:53.272Z,23.68
2024-05-09T12:47:53.287Z,23.18
2024-05-09T12:48:53.400Z,23.68
2024-05-09T12:49:53.174Z,23.08
2024-05-09T12:50:53.221Z,23.07
2024-05-09T12:51:53.210Z,22.88
2024-05-09T12:52:53.447Z,22.48
2024-05-09T12:53:53.170Z,23.28
2024-05-09T12:54:53.117Z,23.69
2024-05-09T12:55:57.040Z,24.19
2024-05-09T12:56:53.066Z,23.90
2024-05-09T12:57:53.103Z,23.21